Time;durP1;ratioP1;P1;durP2;ratioP2;P2;SDS_P1;SDS_P2;PMS_P1;PMS_P2;Temp;Humidity;BMP_temperature;BMP_pressure;BME280_temperature;BME280_humidity;BME280_pressure;Samples;Min_cycle;Max_cycle;Signal;HPM_P1;HPM_P2
2022/01/19 00:00:51;;;;;;;4.53;1.53;;;;;;;;;;6314713;28;20333;-78
2022/01/19 00:03:55;;;;;;;8.03;1.50;;;;;;;;;;6315225;28;20183;-78
2022/01/19 00:06:59;;;;;;;1.37;1.27;;;;;;;;;;6315356;28;20209;-78
2022/01/19 00:10:08;;;;;;;3.80;1.50;;;;;;;;;;6315063;28;20226;-78
2022/01/19 00:13:15;;;;;;;2.93;1.50;;;;;;;;;;6316145;28;20215;-78
2022/01/19 00:16:20;;;;;;;1.77;1.37;;;;;;;;;;6315576;28;20226;-78
2022/01/19 00:19:24;;;;;;;3.30;1.30;;;;;;;;;;6315369;28;20223;-78
2022/01/19 00:22:29;;;;;;;4.90;1.63;;;;;;;;;;6315411;28;20185;-78
2022/01/19 00:25:34;;;;;;;1.27;1.27;;;;;;;;;;6314523;28;20239;-78
2022/01/19 00:28:40;;;;;;;2.50;1.40;;;;;;;;;;6315136;28;20212;-78
2022/01/19 00:31:44;;;;;;;6.10;1.40;;;;;;;;;;6309929;28;20223;-78
2022/01/19 00:34:48;;;;;;;3.83;1.43;;;;;;;;;;6289887;28;20288;-78
2022/01/19 00:37:52;;;;;;;2.43;1.50;;;;;;;;;;6290932;28;20247;-78
2022/01/19 00:40:57;;;;;;;3.33;1.13;;;;;;;;;;6271371;28;20301;-78
2022/01/19 00:44:03;;;;;;;3.50;1.63;;;;;;;;;;6271374;28;20217;-78
2022/01/19 00:47:08;;;;;;;4.40;1.67;;;;;;;;;;6290384;28;20572;-78
2022/01/19 00:50:17;;;;;;;3.37;1.67;;;;;;;;;;6288749;28;20228;-78
2022/01/19 00:53:22;;;;;;;5.07;1.70;;;;;;;;;;6288860;28;20452;-78
2022/01/19 00:56:27;;;;;;;5.70;1.80;;;;;;;;;;6288001;28;20274;-78
2022/01/19 00:59:32;;;;;;;6.10;1.50;;;;;;;;;;6270056;28;20289;-78
2022/01/19 01:02:37;;;;;;;5.70;1.50;;;;;;;;;;6289033;28;20233;-78
2022/01/19 01:05:41;;;;;;;5.67;1.47;;;;;;;;;;6269632;28;20247;-77
2022/01/19 01:08:47;;;;;;;9.73;1.30;;;;;;;;;;6271796;28;20265;-78
2022/01/19 01:12:00;;;;;;;5.50;1.40;;;;;;;;;;6288704;28;20250;-78
2022/01/19 01:18:32;;;;;;;10.97;1.77;;;;;;;;;;6270580;28;20204;-78
2022/01/19 01:21:39;;;;;;;6.40;1.50;;;;;;;;;;6270305;28;20229;-78
2022/01/19 01:24:43;;;;;;;7.53;1.23;;;;;;;;;;6270323;28;20262;-78
2022/01/19 01:27:48;;;;;;;6.80;1.73;;;;;;;;;;6270821;28;20268;-78
2022/01/19 01:30:55;;;;;;;3.33;1.23;;;;;;;;;;6270577;28;20227;-78
2022/01/19 01:33:59;;;;;;;5.83;1.90;;;;;;;;;;6269783;28;20301;-78
2022/01/19 01:37:05;;;;;;;2.90;1.60;;;;;;;;;;6283993;28;20239;-78
2022/01/19 01:40:14;;;;;;;2.83;1.53;;;;;;;;;;6295053;28;20265;-78
2022/01/19 01:43:23;;;;;;;6.33;1.60;;;;;;;;;;6294931;28;20203;-78
2022/01/19 01:46:35;;;;;;;2.40;1.50;;;;;;;;;;6312602;28;20232;-78
2022/01/19 01:53:25;;;;;;;5.17;1.47;;;;;;;;;;6294126;28;20233;-78
2022/01/19 01:53:26;;;;;;;4.13;1.40;;;;;;;;;;6295578;28;20412;-78
2022/01/19 01:56:30;;;;;;;13.83;1.77;;;;;;;;;;6294841;28;20279;-78
2022/01/19 01:59:39;;;;;;;4.43;1.47;;;;;;;;;;6294130;28;20616;-78
2022/01/19 02:02:57;;;;;;;2.43;1.60;;;;;;;;;;6296109;28;20208;-78
2022/01/19 02:09:38;;;;;;;7.17;2.03;;;;;;;;;;6294400;28;20254;-78
2022/01/19 02:16:20;;;;;;;5.83;1.90;;;;;;;;;;6294214;28;20241;-78
2022/01/19 02:22:49;;;;;;;5.30;2.27;;;;;;;;;;6295346;28;20207;-78
2022/01/19 02:25:55;;;;;;;5.90;1.73;;;;;;;;;;6294425;28;20241;-78
2022/01/19 02:29:13;;;;;;;7.67;1.80;;;;;;;;;;6294100;28;20297;-78
2022/01/19 02:42:26;;;;;;;12.40;2.30;;;;;;;;;;6245784;28;20209;-78
2022/01/19 02:49:16;;;;;;;5.77;1.80;;;;;;;;;;6262797;28;20212;-78
2022/01/19 02:52:21;;;;;;;7.73;2.23;;;;;;;;;;6245427;28;20407;-78
2022/01/19 02:55:28;;;;;;;6.47;1.80;;;;;;;;;;6260898;28;20236;-78
2022/01/19 02:58:37;;;;;;;13.07;2.00;;;;;;;;;;6267047;28;20191;-77
2022/01/19 03:08:45;;;;;;;6.77;2.03;;;;;;;;;;6248936;28;20227;-77
2022/01/19 03:11:55;;;;;;;8.67;1.90;;;;;;;;;;6248552;28;20216;-77
2022/01/19 03:15:00;;;;;;;3.27;2.20;;;;;;;;;;6247680;28;20519;-78
2022/01/19 03:18:04;;;;;;;7.97;2.40;;;;;;;;;;6264646;28;20541;-77
2022/01/19 03:21:09;;;;;;;10.30;2.03;;;;;;;;;;6265387;28;20236;-77
2022/01/19 03:24:13;;;;;;;5.00;2.20;;;;;;;;;;6248143;28;20239;-78
2022/01/19 03:27:19;;;;;;;7.87;1.90;;;;;;;;;;6265179;28;20188;-77
2022/01/19 03:30:29;;;;;;;3.00;1.60;;;;;;;;;;6264953;28;20542;-77
2022/01/19 03:33:34;;;;;;;6.73;2.00;;;;;;;;;;6265827;28;20254;-77
2022/01/19 03:36:38;;;;;;;3.57;1.80;;;;;;;;;;6265076;28;20386;-78
2022/01/19 03:39:43;;;;;;;11.43;2.20;;;;;;;;;;6248015;28;20243;-78
2022/01/19 03:42:48;;;;;;;12.97;2.10;;;;;;;;;;6247714;28;20277;-77
2022/01/19 03:45:58;;;;;;;4.93;1.80;;;;;;;;;;6247598;28;20229;-77
2022/01/19 03:49:12;;;;;;;5.57;1.77;;;;;;;;;;6265533;28;20217;-78
2022/01/19 03:52:17;;;;;;;5.30;1.93;;;;;;;;;;6263674;28;20209;-77
2022/01/19 03:55:21;;;;;;;6.50;1.97;;;;;;;;;;6246896;28;20254;-77
2022/01/19 03:58:26;;;;;;;10.33;2.27;;;;;;;;;;6264281;28;20254;-77
2022/01/19 04:01:30;;;;;;;4.40;2.10;;;;;;;;;;6247278;28;20348;-77
2022/01/19 04:04:40;;;;;;;3.50;1.60;;;;;;;;;;6263348;28;20249;-78
2022/01/19 04:08:05;;;;;;;7.90;2.50;;;;;;;;;;6247050;28;20243;-77
2022/01/19 04:11:10;;;;;;;11.70;2.33;;;;;;;;;;6264469;28;20235;-78
2022/01/19 04:14:25;;;;;;;9.00;2.10;;;;;;;;;;6246773;28;20228;-78
2022/01/19 04:17:30;;;;;;;7.30;1.90;;;;;;;;;;6264298;28;20209;-78
2022/01/19 04:20:41;;;;;;;8.50;2.27;;;;;;;;;;6246498;28;20238;-77
2022/01/19 04:23:45;;;;;;;7.03;2.03;;;;;;;;;;6240462;28;20514;-77
2022/01/19 04:30:21;;;;;;;9.50;1.90;;;;;;;;;;6245199;28;20253;-77
2022/01/19 04:33:28;;;;;;;8.43;2.20;;;;;;;;;;6280402;28;20197;-77
2022/01/19 04:36:46;;;;;;;6.90;2.20;;;;;;;;;;6301195;28;20239;-78
2022/01/19 05:04:00;;;;;;;5.00;2.00;;;;;;;;;;6295364;28;20546;-78
2022/01/19 05:07:39;;;;;;;3.43;1.77;;;;;;;;;;6299447;28;20232;-78
2022/01/19 05:14:05;;;;;;;5.83;2.20;;;;;;;;;;6295158;28;20268;-78
2022/01/19 05:17:11;;;;;;;8.90;2.33;;;;;;;;;;6295929;28;20201;-77
2022/01/19 05:20:16;;;;;;;12.57;2.40;;;;;;;;;;6311866;28;20281;-77
2022/01/19 05:23:21;;;;;;;3.67;1.80;;;;;;;;;;6295416;28;20202;-79
2022/01/19 05:26:25;;;;;;;5.97;2.30;;;;;;;;;;6294552;28;20336;-78
2022/01/19 05:29:30;;;;;;;5.20;2.13;;;;;;;;;;6294464;28;20299;-78
2022/01/19 05:32:34;;;;;;;5.73;1.93;;;;;;;;;;6313353;28;20292;-78
2022/01/19 05:35:40;;;;;;;4.87;1.87;;;;;;;;;;6313431;28;20230;-78
2022/01/19 05:39:05;;;;;;;5.00;2.10;;;;;;;;;;6314646;28;20465;-78
2022/01/19 05:42:30;;;;;;;4.37;2.33;;;;;;;;;;6296325;28;20209;-77
2022/01/19 05:45:34;;;;;;;3.33;2.00;;;;;;;;;;6313837;28;20291;-77
2022/01/19 05:48:44;;;;;;;5.97;2.00;;;;;;;;;;6296567;28;20219;-78
2022/01/19 05:51:50;;;;;;;9.87;1.90;;;;;;;;;;6294027;28;20256;-79
2022/01/19 05:54:55;;;;;;;9.40;1.80;;;;;;;;;;6294807;28;20467;-78
2022/01/19 05:57:59;;;;;;;5.13;2.03;;;;;;;;;;6294698;28;20237;-78
2022/01/19 06:01:04;;;;;;;14.57;2.40;;;;;;;;;;6293967;28;20252;-76
2022/01/19 06:04:12;;;;;;;14.27;2.37;;;;;;;;;;6310972;28;20459;-76
2022/01/19 06:07:43;;;;;;;8.90;2.73;;;;;;;;;;6311437;28;20186;-77
2022/01/19 06:11:01;;;;;;;10.10;2.37;;;;;;;;;;6293392;28;20229;-77
2022/01/19 06:14:06;;;;;;;8.10;2.07;;;;;;;;;;6312094;28;20193;-77
2022/01/19 06:17:14;;;;;;;5.00;2.17;;;;;;;;;;6295338;28;20250;-77
2022/01/19 06:20:18;;;;;;;9.53;2.50;;;;;;;;;;6292754;28;20330;-76
2022/01/19 06:23:25;;;;;;;7.97;2.07;;;;;;;;;;6311100;28;20358;-76
2022/01/19 06:26:38;;;;;;;12.13;2.60;;;;;;;;;;6293692;28;20239;-76
2022/01/19 06:29:42;;;;;;;9.40;1.93;;;;;;;;;;6292471;28;20234;-77
2022/01/19 06:32:46;;;;;;;7.13;2.00;;;;;;;;;;6272011;28;20302;-76
2022/01/19 06:35:52;;;;;;;12.23;2.77;;;;;;;;;;6243774;28;20247;-77
2022/01/19 06:39:09;;;;;;;4.97;1.60;;;;;;;;;;6243660;28;20221;-77
2022/01/19 06:42:20;;;;;;;8.87;2.30;;;;;;;;;;6244762;28;20208;-77
2022/01/19 06:45:25;;;;;;;8.13;2.50;;;;;;;;;;6261483;28;20337;-77
2022/01/19 06:48:30;;;;;;;7.27;2.17;;;;;;;;;;6244537;28;20202;-77
2022/01/19 06:51:37;;;;;;;11.07;2.47;;;;;;;;;;6236467;28;20415;-77
2022/01/19 06:54:43;;;;;;;14.03;2.00;;;;;;;;;;6243496;28;20238;-78
2022/01/19 06:57:49;;;;;;;9.53;2.47;;;;;;;;;;6235632;28;20239;-77
2022/01/19 07:01:11;;;;;;;11.20;2.37;;;;;;;;;;6262263;28;20278;-78
2022/01/19 07:04:38;;;;;;;7.63;2.20;;;;;;;;;;6241140;28;20227;-78
2022/01/19 07:07:43;;;;;;;20.80;2.73;;;;;;;;;;6244272;28;20298;-78
2022/01/19 07:10:50;;;;;;;7.20;1.80;;;;;;;;;;6258664;28;20222;-78
2022/01/19 07:13:54;;;;;;;7.17;2.30;;;;;;;;;;6280622;28;20230;-78
2022/01/19 07:16:58;;;;;;;11.73;2.33;;;;;;;;;;6281349;28;20308;-78
2022/01/19 07:20:03;;;;;;;6.80;1.77;;;;;;;;;;6264222;28;20203;-78
2022/01/19 07:23:10;;;;;;;14.70;2.37;;;;;;;;;;6245052;28;20251;-78
2022/01/19 07:26:16;;;;;;;6.30;2.17;;;;;;;;;;6260731;28;20211;-77
2022/01/19 07:29:21;;;;;;;7.73;2.33;;;;;;;;;;6259566;28;20510;-77
2022/01/19 07:32:34;;;;;;;11.80;2.37;;;;;;;;;;6259246;28;20541;-77
2022/01/19 07:35:40;;;;;;;5.43;2.43;;;;;;;;;;6259655;28;20235;-77
2022/01/19 07:38:45;;;;;;;5.60;2.30;;;;;;;;;;6259641;28;20242;-76
2022/01/19 07:41:53;;;;;;;7.13;2.20;;;;;;;;;;6260562;28;20208;-77
2022/01/19 07:45:16;;;;;;;12.57;2.17;;;;;;;;;;6266288;28;20195;-76
2022/01/19 07:48:44;;;;;;;12.63;2.63;;;;;;;;;;6265413;28;20296;-76
2022/01/19 07:52:00;;;;;;;2.83;2.13;;;;;;;;;;6247134;28;20238;-77
2022/01/19 07:55:14;;;;;;;5.17;1.67;;;;;;;;;;6265809;28;20220;-76
2022/01/19 07:58:36;;;;;;;8.77;2.10;;;;;;;;;;6264620;28;20237;-76
2022/01/19 08:01:46;;;;;;;8.90;2.20;;;;;;;;;;6247093;28;20207;-77
2022/01/19 08:05:23;;;;;;;4.27;2.10;;;;;;;;;;6264164;28;20215;-76
2022/01/19 08:08:30;;;;;;;2.10;1.90;;;;;;;;;;6246996;28;20235;-78
2022/01/19 08:11:34;;;;;;;7.73;1.80;;;;;;;;;;6275797;28;20217;-76
2022/01/19 08:14:58;;;;;;;2.40;1.70;;;;;;;;;;6282533;28;20228;-76
2022/01/19 08:18:11;;;;;;;5.67;1.70;;;;;;;;;;6285522;28;20232;-76
2022/01/19 08:21:16;;;;;;;13.07;2.10;;;;;;;;;;6301892;28;20207;-76
2022/01/19 08:24:27;;;;;;;6.00;2.07;;;;;;;;;;6287033;28;20249;-76
2022/01/19 08:27:33;;;;;;;2.10;1.90;;;;;;;;;;6279438;28;20413;-76
2022/01/19 08:30:44;;;;;;;3.53;1.83;;;;;;;;;;6281516;28;20212;-76
2022/01/19 08:33:50;;;;;;;8.70;2.30;;;;;;;;;;6279470;28;20319;-76
2022/01/19 08:37:01;;;;;;;4.80;2.00;;;;;;;;;;6287520;28;20265;-76
2022/01/19 08:40:15;;;;;;;4.53;2.13;;;;;;;;;;6285648;28;20253;-76
2022/01/19 08:43:27;;;;;;;3.20;2.30;;;;;;;;;;6286320;28;20537;-76
2022/01/19 08:46:34;;;;;;;5.67;2.27;;;;;;;;;;6280565;28;20203;-76
2022/01/19 08:49:50;;;;;;;5.53;2.37;;;;;;;;;;6289119;28;20452;-77
2022/01/19 08:53:15;;;;;;;3.77;2.17;;;;;;;;;;6288088;28;20262;-76
2022/01/19 08:56:29;;;;;;;6.70;2.13;;;;;;;;;;6287832;28;20202;-76
2022/01/19 08:59:33;;;;;;;3.53;2.20;;;;;;;;;;6280946;28;20234;-76
2022/01/19 09:02:41;;;;;;;4.43;2.17;;;;;;;;;;6287625;28;20250;-76
2022/01/19 09:05:46;;;;;;;3.87;2.07;;;;;;;;;;6289083;28;20194;-76
2022/01/19 09:08:50;;;;;;;5.67;2.00;;;;;;;;;;6288456;28;20232;-76
2022/01/19 09:11:54;;;;;;;4.53;2.13;;;;;;;;;;6288390;28;20221;-76
2022/01/19 09:14:58;;;;;;;8.53;2.30;;;;;;;;;;6288191;28;20304;-76
2022/01/19 09:18:04;;;;;;;5.80;2.50;;;;;;;;;;6288390;28;20237;-76
2022/01/19 09:21:08;;;;;;;2.27;1.90;;;;;;;;;;6288373;28;20205;-76
2022/01/19 09:24:14;;;;;;;4.47;2.20;;;;;;;;;;6287395;28;20227;-77
2022/01/19 09:27:18;;;;;;;4.73;2.37;;;;;;;;;;6288046;28;20254;-77
2022/01/19 09:30:24;;;;;;;2.47;2.17;;;;;;;;;;6287405;28;20378;-77
2022/01/19 09:33:31;;;;;;;5.50;2.70;;;;;;;;;;6287938;28;20292;-77
2022/01/19 09:36:43;;;;;;;5.97;2.30;;;;;;;;;;6280413;28;20236;-77
2022/01/19 09:39:48;;;;;;;6.33;2.27;;;;;;;;;;6287729;28;20229;-77
2022/01/19 09:42:52;;;;;;;6.43;2.77;;;;;;;;;;6287639;28;20535;-77
2022/01/19 09:45:57;;;;;;;8.97;2.50;;;;;;;;;;6288095;28;20194;-78
2022/01/19 09:49:05;;;;;;;7.30;2.53;;;;;;;;;;6288090;28;20262;-77
2022/01/19 09:52:09;;;;;;;6.70;2.30;;;;;;;;;;6287322;28;20321;-77
2022/01/19 09:55:15;;;;;;;4.70;2.83;;;;;;;;;;6286658;28;20484;-77
2022/01/19 09:58:21;;;;;;;4.10;3.20;;;;;;;;;;6286365;28;20546;-77
2022/01/19 10:01:26;;;;;;;9.60;2.40;;;;;;;;;;6287726;28;20198;-77
2022/01/19 10:04:34;;;;;;;11.23;2.43;;;;;;;;;;6286697;28;20283;-77
2022/01/19 10:07:38;;;;;;;2.77;2.30;;;;;;;;;;6285932;28;20236;-77
2022/01/19 10:10:42;;;;;;;8.60;2.33;;;;;;;;;;6283421;28;20189;-77
2022/01/19 10:17:11;;;;;;;10.87;2.30;;;;;;;;;;6285788;28;20186;-77
2022/01/19 10:20:23;;;;;;;12.57;2.43;;;;;;;;;;6287004;28;20240;-77
2022/01/19 10:23:36;;;;;;;8.60;2.60;;;;;;;;;;6286288;28;20237;-77
2022/01/19 10:26:40;;;;;;;5.50;2.63;;;;;;;;;;6287102;28;20262;-77
2022/01/19 10:29:45;;;;;;;6.73;2.33;;;;;;;;;;6285871;28;20243;-77
2022/01/19 10:32:52;;;;;;;7.37;2.53;;;;;;;;;;6285018;28;20257;-77
2022/01/19 10:35:59;;;;;;;8.00;1.90;;;;;;;;;;6294036;28;20236;-77
2022/01/19 10:39:04;;;;;;;7.20;2.27;;;;;;;;;;6310884;28;20250;-76
2022/01/19 10:42:09;;;;;;;4.03;2.00;;;;;;;;;;6311198;28;20196;-76
2022/01/19 10:45:15;;;;;;;4.87;1.93;;;;;;;;;;6312235;28;20184;-78
2022/01/19 10:48:31;;;;;;;6.27;2.53;;;;;;;;;;6311745;28;20255;-77
2022/01/19 10:51:44;;;;;;;3.97;1.93;;;;;;;;;;6311562;28;20259;-77
2022/01/19 10:54:50;;;;;;;6.40;2.60;;;;;;;;;;6311401;28;20278;-77
2022/01/19 10:57:55;;;;;;;6.43;2.40;;;;;;;;;;6311289;28;20331;-77
2022/01/19 11:01:00;;;;;;;4.90;2.30;;;;;;;;;;6310859;28;20184;-77
2022/01/19 11:04:19;;;;;;;12.67;2.30;;;;;;;;;;6311123;28;20239;-78
2022/01/19 11:07:25;;;;;;;2.17;1.97;;;;;;;;;;6310516;28;20242;-77
2022/01/19 11:10:31;;;;;;;8.77;2.17;;;;;;;;;;6299754;28;20190;-76
2022/01/19 11:13:40;;;;;;;3.67;2.17;;;;;;;;;;6285977;28;20239;-76
2022/01/19 11:16:45;;;;;;;2.60;2.40;;;;;;;;;;6286782;28;20219;-76
2022/01/19 11:19:51;;;;;;;7.80;2.50;;;;;;;;;;6290930;28;20276;-75
2022/01/19 11:23:10;;;;;;;7.90;2.53;;;;;;;;;;6290629;28;20228;-77
2022/01/19 11:26:17;;;;;;;9.63;2.53;;;;;;;;;;6291745;28;20248;-77
2022/01/19 11:29:23;;;;;;;6.83;2.27;;;;;;;;;;6290469;28;20296;-76
2022/01/19 11:32:27;;;;;;;5.57;2.43;;;;;;;;;;6289798;28;20414;-77
2022/01/19 11:35:39;;;;;;;8.87;2.70;;;;;;;;;;6272173;28;20260;-76
2022/01/19 11:38:46;;;;;;;9.10;2.97;;;;;;;;;;6290401;28;20297;-77
2022/01/19 11:41:53;;;;;;;6.80;2.70;;;;;;;;;;6290466;28;20217;-77
2022/01/19 11:44:58;;;;;;;6.47;2.53;;;;;;;;;;6290690;28;20239;-77
2022/01/19 11:48:16;;;;;;;2.93;1.87;;;;;;;;;;6290253;28;20287;-76
2022/01/19 11:51:29;;;;;;;9.07;2.27;;;;;;;;;;6290708;28;20249;-77
2022/01/19 11:54:35;;;;;;;6.37;2.27;;;;;;;;;;6281345;28;20285;-76
2022/01/19 11:57:40;;;;;;;2.50;2.30;;;;;;;;;;6290801;28;20232;-76
2022/01/19 12:00:46;;;;;;;4.67;2.40;;;;;;;;;;6290515;28;20384;-76
2022/01/19 12:03:50;;;;;;;3.00;2.13;;;;;;;;;;6290456;28;20237;-76
2022/01/19 12:07:35;;;;;;;6.83;2.40;;;;;;;;;;6289099;28;20444;-76
2022/01/19 12:10:48;;;;;;;2.77;1.87;;;;;;;;;;6278568;28;20368;-76
2022/01/19 12:14:09;;;;;;;6.63;2.23;;;;;;;;;;6289596;28;20243;-76
2022/01/19 12:17:25;;;;;;;3.93;2.07;;;;;;;;;;6289821;28;20186;-76
2022/01/19 12:20:52;;;;;;;8.40;2.20;;;;;;;;;;6290780;28;20236;-76
2022/01/19 12:23:56;;;;;;;6.00;2.20;;;;;;;;;;6289652;28;20238;-76
2022/01/19 12:27:08;;;;;;;5.33;2.23;;;;;;;;;;6288614;28;20543;-76
2022/01/19 12:30:13;;;;;;;4.80;1.93;;;;;;;;;;6288583;28;20499;-76
2022/01/19 12:33:20;;;;;;;3.60;2.20;;;;;;;;;;6288573;28;20600;-76
2022/01/19 12:36:44;;;;;;;6.40;2.53;;;;;;;;;;6300092;28;20395;-76
2022/01/19 12:39:48;;;;;;;6.63;2.13;;;;;;;;;;6313306;28;20296;-76
2022/01/19 12:42:56;;;;;;;7.50;2.13;;;;;;;;;;6313217;28;20579;-76
2022/01/19 12:46:02;;;;;;;3.50;2.27;;;;;;;;;;6314751;28;20292;-76
2022/01/19 12:49:27;;;;;;;9.50;2.10;;;;;;;;;;6313596;28;20295;-76
2022/01/19 12:52:33;;;;;;;7.03;2.20;;;;;;;;;;6296274;28;20238;-77
2022/01/19 12:55:39;;;;;;;7.77;2.30;;;;;;;;;;6314797;28;20186;-77
2022/01/19 12:58:44;;;;;;;2.23;2.10;;;;;;;;;;6314167;28;20292;-77
2022/01/19 13:01:49;;;;;;;2.57;2.17;;;;;;;;;;6314263;28;20194;-77
2022/01/19 13:05:04;;;;;;;6.20;2.27;;;;;;;;;;6313282;28;20244;-77
2022/01/19 13:08:10;;;;;;;5.03;1.97;;;;;;;;;;6313256;28;20538;-77
2022/01/19 13:11:22;;;;;;;1.93;1.70;;;;;;;;;;6294883;28;20482;-75
2022/01/19 13:14:29;;;;;;;4.37;2.03;;;;;;;;;;6288153;28;20227;-75
2022/01/19 13:17:41;;;;;;;15.13;2.40;;;;;;;;;;6280428;28;20229;-76
2022/01/19 13:20:49;;;;;;;2.80;1.97;;;;;;;;;;6288480;28;20249;-76
2022/01/19 13:23:56;;;;;;;2.27;2.13;;;;;;;;;;6288314;28;20263;-76
2022/01/19 13:27:02;;;;;;;6.53;2.30;;;;;;;;;;6289116;28;20290;-76
2022/01/19 13:30:13;;;;;;;6.50;2.00;;;;;;;;;;6288494;28;20245;-76
2022/01/19 13:33:19;;;;;;;1.90;1.90;;;;;;;;;;6287005;28;20238;-76
2022/01/19 13:36:27;;;;;;;3.60;2.20;;;;;;;;;;6288191;28;20244;-76
2022/01/19 13:39:33;;;;;;;2.13;1.83;;;;;;;;;;6286935;28;20229;-76
2022/01/19 13:42:41;;;;;;;2.00;1.87;;;;;;;;;;6287153;28;20231;-76
2022/01/19 13:45:50;;;;;;;5.77;2.20;;;;;;;;;;6287621;28;20191;-76
2022/01/19 13:48:57;;;;;;;2.37;2.03;;;;;;;;;;6287325;28;20229;-76
2022/01/19 13:52:01;;;;;;;3.37;2.10;;;;;;;;;;6288335;28;20186;-76
2022/01/19 13:55:06;;;;;;;2.60;2.13;;;;;;;;;;6287782;28;20258;-76
2022/01/19 13:58:15;;;;;;;5.30;1.97;;;;;;;;;;6287389;28;20228;-76
2022/01/19 14:01:33;;;;;;;2.50;2.10;;;;;;;;;;6287797;28;20187;-76
2022/01/19 14:04:38;;;;;;;6.07;2.00;;;;;;;;;;6287107;28;20261;-76
2022/01/19 14:07:46;;;;;;;6.60;2.70;;;;;;;;;;6286146;28;20235;-76
2022/01/19 14:10:56;;;;;;;6.50;2.27;;;;;;;;;;6286409;28;20477;-76
2022/01/19 14:14:03;;;;;;;7.30;2.00;;;;;;;;;;6285732;28;20444;-76
2022/01/19 14:17:14;;;;;;;3.63;2.20;;;;;;;;;;6286679;28;20185;-77
2022/01/19 14:20:21;;;;;;;2.00;1.93;;;;;;;;;;6286421;28;20470;-76
2022/01/19 14:23:26;;;;;;;4.83;2.57;;;;;;;;;;6286293;28;20231;-76
2022/01/19 14:26:30;;;;;;;5.27;2.20;;;;;;;;;;6287518;28;20349;-76
2022/01/19 14:29:34;;;;;;;3.73;2.67;;;;;;;;;;6286701;28;20288;-76
2022/01/19 14:32:42;;;;;;;2.17;2.07;;;;;;;;;;6286321;28;20289;-77
2022/01/19 14:35:51;;;;;;;6.63;2.53;;;;;;;;;;6287374;28;20238;-77
2022/01/19 14:38:58;;;;;;;9.23;2.20;;;;;;;;;;6286582;28;20231;-77
2022/01/19 14:42:09;;;;;;;6.63;2.77;;;;;;;;;;6285525;28;20254;-78
2022/01/19 14:45:20;;;;;;;4.97;2.80;;;;;;;;;;6286156;28;20418;-77
2022/01/19 14:48:26;;;;;;;12.43;4.00;;;;;;;;;;6286592;28;20231;-77
2022/01/19 14:51:31;;;;;;;7.40;3.10;;;;;;;;;;6289249;28;20278;-77
2022/01/19 14:54:40;;;;;;;18.97;3.63;;;;;;;;;;6291534;28;20297;-77
2022/01/19 14:57:44;;;;;;;11.57;3.33;;;;;;;;;;6291643;28;20328;-77
2022/01/19 15:00:53;;;;;;;4.97;3.10;;;;;;;;;;6291263;28;20250;-77
2022/01/19 15:03:59;;;;;;;14.47;3.57;;;;;;;;;;6291470;28;20234;-77
2022/01/19 15:07:04;;;;;;;4.80;3.40;;;;;;;;;;6292247;28;20185;-77
2022/01/19 15:10:11;;;;;;;5.93;3.03;;;;;;;;;;6292590;28;20209;-77
2022/01/19 15:13:15;;;;;;;11.03;2.93;;;;;;;;;;6291812;28;20228;-78
2022/01/19 15:16:19;;;;;;;11.30;3.70;;;;;;;;;;6291221;28;20402;-76
2022/01/19 15:19:26;;;;;;;14.97;3.20;;;;;;;;;;6291158;28;20492;-77
2022/01/19 15:22:31;;;;;;;5.27;2.90;;;;;;;;;;6290667;28;20226;-77
2022/01/19 15:25:37;;;;;;;8.53;3.00;;;;;;;;;;6291657;28;20196;-77
2022/01/19 15:28:41;;;;;;;5.30;2.60;;;;;;;;;;6290504;28;20233;-77
2022/01/19 15:31:48;;;;;;;11.40;2.97;;;;;;;;;;6291598;28;20241;-76
2022/01/19 15:34:53;;;;;;;8.77;2.90;;;;;;;;;;6290514;28;20244;-76
2022/01/19 15:37:57;;;;;;;10.20;2.90;;;;;;;;;;6290319;28;20296;-76
2022/01/19 15:41:07;;;;;;;14.80;2.70;;;;;;;;;;6291049;28;20221;-77
2022/01/19 15:44:11;;;;;;;5.97;2.33;;;;;;;;;;6289588;28;20409;-76
2022/01/19 15:47:18;;;;;;;5.97;2.50;;;;;;;;;;6289384;28;20440;-77
2022/01/19 15:50:26;;;;;;;2.43;1.97;;;;;;;;;;6291253;28;20187;-76
2022/01/19 15:53:31;;;;;;;4.50;2.30;;;;;;;;;;6290234;28;20292;-77
2022/01/19 15:56:35;;;;;;;4.33;2.30;;;;;;;;;;6289824;28;20269;-76
2022/01/19 15:59:41;;;;;;;3.57;2.13;;;;;;;;;;6289217;28;20244;-76
2022/01/19 16:02:45;;;;;;;2.87;1.93;;;;;;;;;;6288230;28;20285;-77
2022/01/19 16:05:52;;;;;;;5.57;2.23;;;;;;;;;;6289683;28;20570;-77
2022/01/19 16:08:57;;;;;;;4.97;2.60;;;;;;;;;;6289586;28;20308;-76
2022/01/19 16:12:02;;;;;;;4.60;2.30;;;;;;;;;;6285610;28;20485;-76
2022/01/19 16:15:13;;;;;;;2.10;1.90;;;;;;;;;;6290170;28;20221;-77
2022/01/19 16:18:19;;;;;;;2.20;2.00;;;;;;;;;;6290045;28;20234;-77
2022/01/19 16:21:26;;;;;;;3.17;2.80;;;;;;;;;;6290815;28;20259;-77
2022/01/19 16:28:01;;;;;;;2.40;2.03;;;;;;;;;;6253878;28;20459;-76
2022/01/19 16:31:05;;;;;;;1.83;1.73;;;;;;;;;;6289276;28;20202;-77
2022/01/19 16:34:10;;;;;;;2.70;1.87;;;;;;;;;;6289293;28;20228;-77
2022/01/19 16:37:15;;;;;;;6.80;2.30;;;;;;;;;;6307016;28;20267;-77
2022/01/19 16:40:20;;;;;;;1.27;1.20;;;;;;;;;;6314907;28;20221;-76
2022/01/19 16:43:26;;;;;;;3.67;2.53;;;;;;;;;;6313591;28;20237;-77
2022/01/19 16:46:30;;;;;;;2.57;1.77;;;;;;;;;;6313483;28;20189;-77
2022/01/19 16:49:36;;;;;;;4.53;1.83;;;;;;;;;;6313610;28;20517;-76
2022/01/19 16:52:42;;;;;;;4.43;2.20;;;;;;;;;;6308314;28;20291;-76
2022/01/19 16:55:46;;;;;;;1.60;1.50;;;;;;;;;;6314506;28;20211;-77
2022/01/19 16:58:50;;;;;;;2.23;2.13;;;;;;;;;;6314360;28;20229;-78
2022/01/19 17:01:55;;;;;;;2.00;1.90;;;;;;;;;;6314425;28;20469;-78
2022/01/19 17:04:59;;;;;;;3.50;1.93;;;;;;;;;;6313264;28;20268;-78
2022/01/19 17:08:05;;;;;;;2.27;2.10;;;;;;;;;;6313921;28;20297;-77
2022/01/19 17:11:11;;;;;;;1.60;1.50;;;;;;;;;;6313635;28;20193;-78
2022/01/19 17:14:21;;;;;;;3.23;1.73;;;;;;;;;;6312854;28;20300;-77
2022/01/19 17:17:36;;;;;;;2.53;1.60;;;;;;;;;;6312717;28;20236;-77
2022/01/19 17:20:41;;;;;;;1.67;1.57;;;;;;;;;;6313680;28;20192;-77
2022/01/19 17:23:50;;;;;;;1.70;1.60;;;;;;;;;;6312702;28;20234;-78
2022/01/19 17:26:55;;;;;;;3.70;2.37;;;;;;;;;;6312734;28;20498;-77
2022/01/19 17:30:00;;;;;;;3.40;2.03;;;;;;;;;;6313015;28;20424;-77
2022/01/19 17:33:05;;;;;;;2.00;1.90;;;;;;;;;;6313407;28;20457;-77
2022/01/19 17:36:10;;;;;;;2.03;1.80;;;;;;;;;;6312627;28;20463;-77
2022/01/19 17:39:15;;;;;;;2.63;1.57;;;;;;;;;;6313653;28;20237;-76
2022/01/19 17:42:22;;;;;;;2.27;1.90;;;;;;;;;;6312961;28;20529;-78
2022/01/19 17:45:32;;;;;;;2.27;1.60;;;;;;;;;;6314260;28;20197;-77
2022/01/19 17:48:48;;;;;;;2.00;1.90;;;;;;;;;;6312492;28;20293;-77
2022/01/19 17:51:52;;;;;;;1.70;1.70;;;;;;;;;;6313944;28;20308;-77
2022/01/19 17:54:58;;;;;;;1.83;1.73;;;;;;;;;;6313852;28;20224;-77
2022/01/19 17:58:02;;;;;;;8.17;2.23;;;;;;;;;;6313144;28;20456;-76
2022/01/19 18:01:06;;;;;;;2.20;2.00;;;;;;;;;;6313684;28;20247;-76
2022/01/19 18:04:10;;;;;;;1.90;1.80;;;;;;;;;;6312466;28;20233;-76
2022/01/19 18:07:15;;;;;;;2.67;2.00;;;;;;;;;;6313337;28;20558;-76
2022/01/19 18:10:20;;;;;;;1.30;1.20;;;;;;;;;;6302490;28;20253;-77
2022/01/19 18:13:24;;;;;;;1.97;1.87;;;;;;;;;;6269236;28;20245;-77
2022/01/19 18:16:29;;;;;;;6.23;2.20;;;;;;;;;;6286507;28;20551;-77
2022/01/19 18:19:33;;;;;;;2.30;2.10;;;;;;;;;;6280405;28;20232;-78
2022/01/19 18:22:39;;;;;;;2.57;2.37;;;;;;;;;;6288175;28;20268;-78
2022/01/19 18:25:44;;;;;;;3.10;1.87;;;;;;;;;;6288161;28;20454;-79
2022/01/19 18:28:50;;;;;;;3.93;2.00;;;;;;;;;;6287683;28;20259;-78
2022/01/19 18:31:55;;;;;;;2.07;1.73;;;;;;;;;;6288324;28;20273;-78
2022/01/19 18:34:59;;;;;;;6.03;2.20;;;;;;;;;;6287274;28;20289;-78
2022/01/19 18:38:03;;;;;;;6.53;1.90;;;;;;;;;;6285991;28;20240;-78
2022/01/19 18:41:10;;;;;;;13.00;2.13;;;;;;;;;;6286663;28;20219;-78
2022/01/19 18:44:14;;;;;;;2.53;2.30;;;;;;;;;;6286170;28;20238;-78
2022/01/19 18:47:19;;;;;;;3.43;2.33;;;;;;;;;;6286526;28;20257;-78
2022/01/19 18:50:25;;;;;;;2.10;2.00;;;;;;;;;;6287267;28;20270;-77
2022/01/19 18:53:29;;;;;;;2.67;2.40;;;;;;;;;;6286495;28;20225;-77
2022/01/19 18:56:35;;;;;;;1.90;1.90;;;;;;;;;;6254461;28;20237;-78
2022/01/19 18:59:39;;;;;;;2.10;2.00;;;;;;;;;;6260832;28;20455;-77
2022/01/19 19:02:46;;;;;;;4.87;2.17;;;;;;;;;;6261301;28;20212;-77
2022/01/19 19:05:51;;;;;;;2.40;2.20;;;;;;;;;;6261633;28;20334;-77
2022/01/19 19:08:56;;;;;;;4.20;2.00;;;;;;;;;;6261155;28;20382;-77
2022/01/19 19:12:05;;;;;;;2.30;2.20;;;;;;;;;;6261078;28;20233;-77
2022/01/19 19:15:12;;;;;;;2.37;2.20;;;;;;;;;;6260841;28;20228;-77
2022/01/19 19:18:17;;;;;;;2.10;1.93;;;;;;;;;;6261362;28;20547;-77
2022/01/19 19:21:21;;;;;;;2.30;2.13;;;;;;;;;;6260881;28;20404;-77
2022/01/19 19:24:25;;;;;;;5.17;2.20;;;;;;;;;;6260351;28;20193;-77
2022/01/19 19:27:31;;;;;;;3.20;2.20;;;;;;;;;;6261600;28;20427;-77
2022/01/19 19:30:37;;;;;;;7.47;2.30;;;;;;;;;;6260322;28;20470;-77
2022/01/19 19:33:41;;;;;;;3.30;2.10;;;;;;;;;;6261711;28;20193;-77
2022/01/19 19:36:45;;;;;;;3.90;2.10;;;;;;;;;;6260328;28;20267;-77
2022/01/19 19:39:49;;;;;;;2.50;2.27;;;;;;;;;;6263875;28;20410;-77
2022/01/19 19:42:55;;;;;;;5.57;2.47;;;;;;;;;;6265185;28;20218;-77
2022/01/19 19:46:01;;;;;;;2.03;1.93;;;;;;;;;;6265454;28;20229;-77
2022/01/19 19:49:06;;;;;;;5.83;2.13;;;;;;;;;;6265103;28;20370;-77
2022/01/19 19:52:12;;;;;;;2.43;2.33;;;;;;;;;;6265612;28;20242;-77
2022/01/19 19:55:19;;;;;;;2.20;2.10;;;;;;;;;;6264742;28;20383;-77